Strona główna
Zdjęcia satelitarne 10-dni prognozyKlimatMeteorologia morska Cyklony Błyskawica LotniskoFAQ Gazetka O
Pogoda : Europa Afryka Ameryka Północna Ameryka Południowa Azja Australia-Oceania Inny
Języki Kontakt

Albert, Francja

Szerokość geograficzna: 49-58-21N, Długość geograficzna: 002-41-29E, wysokość: 111 m


METAR: LFAQ 270900Z AUTO 24006KT 190V270 CAVOK 16/10 Q1025
TAF: LFAQ 270800Z 2709/2718 27008KT 9999 SCT040

czas: 11:31 (09:31 UTC)

Aktualna obserwacja pogody

Raport powstał 31 minut temu, godzina 09:00 UTC
Wiatr 6 kt od zachodnio-południowy zachód, zmienny między południe i zachód
Temperatura 16°C
Wilgotność 68%
Ciśnienie 1025 hPa
Widzialność 10 km lub więcej
Brak chmur poniżej 1500 m i brak chmur cumulonimbus

Jednostka miary

Prognoza

Raport powstał 1 godzina i 31 minut temu, godzina 08:00 UTC
Prognoza ważna od 27 godzina 09 UTC do 27 godzina 18 UTC
Wiatr 8 kt od zachód
Widzialność 10 km lub więcej
Rozproszone chmury na wysokości 4000 ft
Informacje na tej stronie internetowej podlegają klauzuli o wyłączeniu odpowiedzialności
Pogoda : Europa Afryka Ameryka Północna Ameryka Południowa Azja Australia-Oceania Inny
Zdjęcia satelitarne 10-dni prognozyKlimatMeteorologia morska Cyklony Błyskawica LotniskoFAQ Języki Kontakt Gazetka O